createdAt,value
2023-03-26T00:01:25.830Z,6.07
2023-03-26T00:06:18.769Z,6.09
2023-03-26T00:11:13.766Z,6.11
2023-03-26T00:16:06.890Z,6.15
2023-03-26T00:21:01.047Z,6.18
2023-03-26T00:25:54.799Z,6.22
2023-03-26T00:30:48.324Z,6.22
2023-03-26T00:35:43.428Z,6.19
2023-03-26T00:40:36.851Z,6.10
2023-03-26T00:45:29.645Z,5.97
2023-03-26T00:50:22.452Z,5.83
2023-03-26T00:55:16.232Z,5.72
2023-03-26T01:00:17.026Z,5.62
2023-03-26T01:05:35.163Z,5.57
2023-03-26T01:10:28.169Z,5.48
2023-03-26T01:15:22.237Z,5.38
2023-03-26T01:20:26.915Z,5.31
2023-03-26T01:25:21.245Z,5.27
2023-03-26T01:30:38.691Z,5.29
2023-03-26T01:35:38.561Z,5.31
2023-03-26T01:40:43.308Z,5.30
2023-03-26T01:45:40.003Z,5.25
2023-03-26T01:50:32.868Z,5.20
2023-03-26T01:55:38.270Z,5.15
2023-03-26T02:00:34.946Z,5.08
2023-03-26T02:05:46.088Z,5.06
2023-03-26T02:10:44.307Z,5.06
2023-03-26T02:15:37.353Z,5.08
2023-03-26T02:20:30.679Z,5.11
2023-03-26T02:25:24.114Z,5.16
2023-03-26T02:30:26.230Z,5.20
2023-03-26T02:35:22.869Z,5.26
2023-03-26T02:40:21.354Z,5.29
2023-03-26T02:45:14.677Z,5.30
2023-03-26T02:50:26.579Z,5.30
2023-03-26T02:55:49.203Z,5.27
2023-03-26T03:00:43.787Z,5.19
2023-03-26T03:05:56.887Z,5.16
2023-03-26T03:11:21.873Z,5.19
2023-03-26T03:16:15.937Z,5.24
2023-03-26T03:21:08.850Z,5.28
2023-03-26T03:26:02.760Z,5.30
2023-03-26T03:30:57.776Z,5.29
2023-03-26T03:35:59.501Z,5.28
2023-03-26T03:40:55.572Z,5.27
2023-03-26T03:45:49.935Z,5.29
2023-03-26T03:51:02.891Z,5.35
2023-03-26T03:56:19.129Z,5.40
2023-03-26T04:01:31.874Z,5.45
2023-03-26T04:06:30.413Z,5.48
2023-03-26T04:11:23.870Z,5.47
2023-03-26T04:16:42.690Z,5.50
2023-03-26T04:21:38.062Z,5.56
2023-03-26T04:26:32.030Z,5.61
2023-03-26T04:31:31.276Z,5.67
2023-03-26T04:36:29.121Z,5.71
2023-03-26T04:41:26.416Z,5.78
2023-03-26T04:46:27.422Z,5.84
2023-03-26T04:51:39.571Z,5.91
2023-03-26T04:56:48.218Z,5.97
2023-03-26T05:01:55.377Z,6.05
2023-03-26T05:06:49.497Z,6.11
2023-03-26T05:11:48.376Z,6.17
2023-03-26T05:16:41.563Z,6.23
2023-03-26T05:21:35.890Z,6.31
2023-03-26T05:26:29.330Z,6.40
2023-03-26T05:31:22.926Z,6.51
2023-03-26T05:36:19.230Z,6.70
2023-03-26T05:41:22.168Z,6.86
2023-03-26T05:46:16.311Z,6.94
2023-03-26T05:51:09.710Z,7.03
2023-03-26T05:56:05.726Z,7.12
2023-03-26T06:01:19.787Z,7.16
2023-03-26T06:06:33.373Z,7.20
2023-03-26T06:11:26.724Z,7.26
2023-03-26T06:16:26.360Z,7.38
2023-03-26T06:21:35.349Z,7.59
2023-03-26T06:26:44.189Z,7.91
2023-03-26T06:32:03.444Z,8.24
2023-03-26T06:37:09.042Z,8.25
2023-03-26T06:42:02.033Z,8.26
2023-03-26T06:47:08.393Z,8.11
2023-03-26T06:52:16.520Z,7.88
2023-03-26T06:57:12.045Z,7.74
2023-03-26T07:02:23.965Z,7.65
2023-03-26T07:07:46.368Z,7.65
2023-03-26T07:13:09.057Z,7.54
2023-03-26T07:18:34.249Z,7.50
2023-03-26T07:23:29.349Z,7.51
2023-03-26T07:29:04.569Z,8.03
2023-03-26T07:34:41.966Z,8.59
2023-03-26T07:40:00.418Z,9.11
2023-03-26T07:45:17.955Z,10.79
2023-03-26T07:50:27.167Z,13.38
2023-03-26T07:55:26.295Z,15.13
2023-03-26T08:00:45.947Z,15.29
2023-03-26T08:05:51.551Z,15.44
2023-03-26T08:11:19.693Z,14.23
2023-03-26T08:16:24.377Z,12.97
2023-03-26T08:21:23.584Z,12.02
2023-03-26T08:26:29.639Z,11.48
2023-03-26T08:31:39.219Z,11.12
2023-03-26T08:36:32.520Z,11.08
2023-03-26T08:41:40.605Z,11.11
2023-03-26T08:46:42.314Z,11.12
2023-03-26T08:51:53.028Z,11.15
2023-03-26T08:57:16.981Z,10.92
2023-03-26T09:02:37.146Z,11.07
2023-03-26T09:07:48.294Z,11.57
2023-03-26T09:12:59.776Z,12.13
2023-03-26T09:18:46.354Z,12.68
2023-03-26T09:24:01.593Z,13.49
2023-03-26T09:29:06.520Z,13.17
2023-03-26T09:34:14.364Z,12.65
2023-03-26T09:39:33.382Z,11.73
2023-03-26T09:44:38.153Z,10.74
2023-03-26T09:49:54.103Z,10.77
2023-03-26T09:55:15.576Z,11.96
2023-03-26T10:00:34.682Z,12.19
2023-03-26T10:05:47.055Z,11.93
2023-03-26T10:10:43.532Z,11.66
2023-03-26T10:15:54.720Z,11.30
2023-03-26T10:20:53.462Z,10.86
2023-03-26T10:26:14.472Z,10.70
2023-03-26T10:31:31.236Z,11.25
2023-03-26T10:36:35.838Z,11.37
2023-03-26T10:41:39.668Z,10.86
2023-03-26T10:46:41.447Z,11.24
2023-03-26T10:52:12.832Z,15.43
2023-03-26T10:57:25.007Z,19.25
2023-03-26T11:02:42.965Z,17.65
2023-03-26T11:08:13.366Z,15.68
2023-03-26T11:13:24.924Z,14.00
2023-03-26T11:18:31.565Z,12.67
2023-03-26T11:23:28.505Z,11.96
2023-03-26T11:28:40.171Z,11.87
2023-03-26T11:34:36.909Z,12.01
2023-03-26T11:39:00.885Z,11.90
2023-03-26T11:44:05.704Z,11.88
2023-03-26T11:49:01.551Z,12.26
2023-03-26T11:53:54.710Z,12.83
2023-03-26T11:58:56.445Z,12.92
2023-03-26T12:04:08.151Z,12.94
2023-03-26T12:09:01.423Z,12.84
2023-03-26T12:13:59.493Z,12.96
2023-03-26T12:20:12.026Z,12.78
2023-03-26T12:25:26.211Z,12.54
2023-03-26T12:30:25.653Z,13.15
2023-03-26T12:35:27.867Z,13.05
2023-03-26T12:40:28.556Z,13.12
2023-03-26T12:45:24.724Z,12.73
2023-03-26T12:50:18.196Z,12.53
2023-03-26T12:55:39.528Z,12.38
2023-03-26T13:00:44.709Z,12.03
2023-03-26T13:05:46.776Z,11.86
2023-03-26T13:10:43.165Z,11.90
2023-03-26T13:15:40.104Z,11.95
2023-03-26T13:20:50.050Z,11.93
2023-03-26T13:25:58.182Z,11.52
2023-03-26T13:31:00.544Z,11.01
2023-03-26T13:36:14.423Z,10.69
2023-03-26T13:41:27.645Z,11.10
2023-03-26T13:46:36.778Z,11.55
2023-03-26T13:51:41.946Z,11.69
2023-03-26T13:56:44.749Z,12.35
2023-03-26T14:01:45.533Z,12.79
2023-03-26T14:06:48.381Z,12.97
2023-03-26T14:11:41.131Z,12.66
2023-03-26T14:16:45.593Z,11.87
2023-03-26T14:22:01.026Z,11.35
2023-03-26T14:27:10.716Z,11.43
2023-03-26T14:32:24.232Z,11.90
2023-03-26T14:37:31.475Z,12.03
2023-03-26T14:42:56.498Z,12.13
2023-03-26T14:48:27.121Z,12.36
2023-03-26T14:53:40.501Z,12.60
2023-03-26T14:59:04.068Z,12.40
2023-03-26T15:04:34.714Z,12.31
2023-03-26T15:10:08.154Z,12.06
2023-03-26T15:15:13.074Z,12.22
2023-03-26T15:20:49.141Z,12.25
2023-03-26T15:26:00.717Z,12.20
2023-03-26T15:31:27.542Z,12.04
2023-03-26T15:36:45.973Z,12.05
2023-03-26T15:41:48.437Z,11.99
2023-03-26T15:47:00.193Z,11.89
2023-03-26T15:52:21.140Z,11.64
2023-03-26T15:57:26.483Z,11.37
2023-03-26T16:02:50.348Z,11.14
2023-03-26T16:07:54.241Z,10.94
2023-03-26T16:12:54.872Z,10.77
2023-03-26T16:18:12.047Z,10.58
2023-03-26T16:23:07.167Z,10.44
2023-03-26T16:28:23.601Z,10.24
2023-03-26T16:33:37.531Z,10.02
2023-03-26T16:38:55.667Z,9.78
2023-03-26T16:43:55.210Z,9.61
2023-03-26T16:49:03.829Z,9.46
2023-03-26T16:54:24.864Z,9.33
2023-03-26T17:00:05.792Z,9.17
2023-03-26T17:05:21.221Z,9.00
2023-03-26T17:10:32.128Z,8.81
2023-03-26T17:15:31.503Z,8.62
2023-03-26T17:20:26.759Z,8.44
2023-03-26T17:25:22.620Z,8.22
2023-03-26T17:30:46.563Z,7.98
2023-03-26T17:35:49.239Z,7.75
2023-03-26T17:40:58.582Z,7.55
2023-03-26T17:46:02.856Z,7.38
2023-03-26T17:51:05.365Z,7.20
2023-03-26T17:56:05.106Z,7.03
2023-03-26T18:01:36.160Z,6.89
2023-03-26T18:06:55.491Z,6.73
2023-03-26T18:12:09.396Z,6.58
2023-03-26T18:17:03.533Z,6.43
2023-03-26T18:22:04.894Z,6.28
2023-03-26T18:27:12.442Z,6.20
2023-03-26T18:32:11.960Z,6.05
2023-03-26T18:37:31.823Z,5.88
2023-03-26T18:42:26.536Z,5.75
2023-03-26T18:47:20.136Z,5.62
2023-03-26T18:52:17.876Z,5.49
2023-03-26T18:57:21.774Z,5.39
2023-03-26T19:02:16.567Z,5.30
2023-03-26T19:07:14.647Z,5.18
2023-03-26T19:12:16.896Z,5.06
2023-03-26T19:17:09.979Z,4.98
2023-03-26T19:22:03.840Z,4.89
2023-03-26T19:26:57.346Z,4.76
2023-03-26T19:31:54.633Z,4.65
2023-03-26T19:37:04.380Z,4.52
2023-03-26T19:41:57.253Z,4.43
2023-03-26T19:46:52.816Z,4.36
2023-03-26T19:51:52.090Z,4.24
2023-03-26T19:56:45.484Z,4.15
2023-03-26T20:01:38.792Z,4.12
2023-03-26T20:06:42.643Z,4.06
2023-03-26T20:11:40.825Z,3.98
2023-03-26T20:16:35.423Z,3.90
2023-03-26T20:21:28.387Z,3.82
2023-03-26T20:26:22.658Z,3.71
2023-03-26T20:31:22.215Z,3.67
2023-03-26T20:36:33.820Z,3.64
2023-03-26T20:41:31.817Z,3.56
2023-03-26T20:46:31.325Z,3.49
2023-03-26T20:51:24.807Z,3.38
2023-03-26T20:56:20.756Z,3.30
2023-03-26T21:01:17.448Z,3.24
2023-03-26T21:06:14.541Z,3.18
2023-03-26T21:11:15.539Z,3.12
2023-03-26T21:16:19.788Z,3.02
2023-03-26T21:21:59.061Z,2.95
2023-03-26T21:27:06.968Z,2.87
2023-03-26T21:32:00.413Z,2.84
2023-03-26T21:36:53.588Z,2.82
2023-03-26T21:42:04.822Z,2.82
2023-03-26T21:46:58.602Z,2.79
2023-03-26T21:51:51.635Z,2.79
2023-03-26T21:56:53.468Z,2.83
2023-03-26T22:02:05.309Z,2.81
2023-03-26T22:07:15.889Z,2.73
2023-03-26T22:12:10.656Z,2.64
2023-03-26T22:17:03.638Z,2.56
2023-03-26T22:21:58.511Z,2.50
2023-03-26T22:26:51.380Z,2.39
2023-03-26T22:31:45.302Z,2.31
2023-03-26T22:36:40.403Z,2.25
2023-03-26T22:41:33.378Z,2.19
2023-03-26T22:46:26.714Z,2.11
2023-03-26T22:51:20.259Z,2.03
2023-03-26T22:56:15.452Z,2.01
2023-03-26T23:01:17.013Z,2.01
2023-03-26T23:06:12.222Z,2.03
2023-03-26T23:11:23.406Z,2.05
2023-03-26T23:16:17.590Z,2.02
2023-03-26T23:21:22.271Z,2.00
2023-03-26T23:26:15.671Z,2.01
2023-03-26T23:31:10.568Z,2.03
2023-03-26T23:36:09.252Z,2.07
2023-03-26T23:41:02.148Z,2.08
2023-03-26T23:45:57.092Z,2.05
2023-03-26T23:51:03.001Z,2.02
2023-03-26T23:55:58.152Z,2.00
